createdAt,value
2019-04-14T00:01:28.310Z,29.10
2019-04-14T00:04:11.551Z,29.10
2019-04-14T00:06:48.347Z,29.30
2019-04-14T00:09:25.164Z,29.40
2019-04-14T00:12:04.739Z,29.50
2019-04-14T00:14:40.335Z,29.60
2019-04-14T00:17:17.859Z,29.70
2019-04-14T00:19:54.453Z,29.80
2019-04-14T00:22:32.093Z,29.90
2019-04-14T00:25:09.320Z,30.00
2019-04-14T00:27:45.918Z,30.10
2019-04-14T00:30:23.475Z,30.20
2019-04-14T00:33:04.052Z,30.20
2019-04-14T00:36:09.179Z,30.30
2019-04-14T00:38:49.983Z,30.30
2019-04-14T00:41:50.296Z,30.50
2019-04-14T00:44:38.762Z,30.60
2019-04-14T00:47:22.240Z,30.60
2019-04-14T00:49:59.415Z,30.70
2019-04-14T00:52:39.428Z,30.80
2019-04-14T00:55:16.071Z,30.90
2019-04-14T00:57:52.975Z,31.10
2019-04-14T01:00:30.313Z,31.10
2019-04-14T01:03:06.994Z,31.20
2019-04-14T01:05:43.662Z,31.40
2019-04-14T01:08:21.100Z,31.50
2019-04-14T01:10:58.335Z,31.50
2019-04-14T01:13:35.403Z,31.40
2019-04-14T01:16:15.445Z,31.60
2019-04-14T01:18:49.636Z,31.80
2019-04-14T01:21:26.417Z,31.80
2019-04-14T01:24:03.665Z,32.00
2019-04-14T01:26:42.077Z,32.00
2019-04-14T01:29:18.878Z,32.00
2019-04-14T01:31:55.769Z,32.40
2019-04-14T01:34:32.426Z,32.20
2019-04-14T01:37:09.382Z,32.30
2019-04-14T01:39:46.063Z,32.40
2019-04-14T01:42:24.491Z,32.50
2019-04-14T01:45:01.423Z,32.70
2019-04-14T01:47:39.936Z,32.70
2019-04-14T01:50:16.910Z,32.60
2019-04-14T01:52:59.189Z,32.80
2019-04-14T01:56:04.087Z,32.90
2019-04-14T01:58:51.235Z,33.00
2019-04-14T02:01:32.483Z,33.10
2019-04-14T02:04:09.506Z,33.40
2019-04-14T02:06:46.257Z,33.20
2019-04-14T02:09:22.952Z,33.40
2019-04-14T02:11:59.507Z,33.50
2019-04-14T02:14:36.508Z,33.40
2019-04-14T02:17:13.231Z,33.60
2019-04-14T02:19:50.276Z,33.60
2019-04-14T02:22:27.212Z,34.00
2019-04-14T02:25:03.740Z,34.20
2019-04-14T02:27:40.743Z,33.70
2019-04-14T02:30:20.841Z,34.00
2019-04-14T02:33:26.639Z,34.10
2019-04-14T02:36:12.106Z,34.00
2019-04-14T02:38:41.319Z,34.20
2019-04-14T02:41:24.191Z,34.40
2019-04-14T02:43:56.439Z,34.50
2019-04-14T02:46:34.591Z,34.30
2019-04-14T02:49:03.887Z,34.60
2019-04-14T02:51:42.741Z,34.70
2019-04-14T02:54:22.829Z,34.80
2019-04-14T02:57:05.479Z,35.00
2019-04-14T02:59:45.098Z,35.10
2019-04-14T03:02:24.766Z,35.30
2019-04-14T03:04:56.421Z,35.20
2019-04-14T03:10:12.609Z,35.50
2019-04-14T03:12:49.209Z,35.50
2019-04-14T03:15:25.360Z,35.20
2019-04-14T03:18:35.594Z,35.70
2019-04-14T03:24:33.782Z,35.70
2019-04-14T03:27:20.222Z,36.10
2019-04-14T03:30:08.258Z,36.40
2019-04-14T03:33:11.064Z,36.50
2019-04-14T03:37:55.540Z,36.40
2019-04-14T03:40:35.675Z,36.40
2019-04-14T03:43:10.027Z,36.40
2019-04-14T03:45:55.141Z,36.30
2019-04-14T03:48:48.242Z,36.70
2019-04-14T03:51:00.673Z,36.80
2019-04-14T03:53:39.909Z,36.90
2019-04-14T03:56:24.533Z,36.60
2019-04-14T03:59:00.304Z,36.70
2019-04-14T04:01:36.881Z,36.80
2019-04-14T04:04:14.035Z,37.00
2019-04-14T04:06:51.012Z,37.10
2019-04-14T04:09:34.266Z,36.90
2019-04-14T04:12:11.660Z,37.00
2019-04-14T04:14:48.878Z,36.80
2019-04-14T04:17:43.740Z,37.20
2019-04-14T04:20:28.565Z,37.20
2019-04-14T04:23:22.656Z,37.30
2019-04-14T04:26:14.745Z,37.10
2019-04-14T04:28:58.352Z,37.20
2019-04-14T04:32:03.293Z,37.50
2019-04-14T04:34:55.596Z,37.50
2019-04-14T04:37:43.331Z,37.40
2019-04-14T04:40:29.041Z,37.30
2019-04-14T04:43:05.883Z,37.40
2019-04-14T04:45:43.030Z,37.50
2019-04-14T04:48:21.654Z,37.20
2019-04-14T04:50:58.552Z,37.40
2019-04-14T04:53:35.391Z,37.90
2019-04-14T04:56:12.204Z,38.00
2019-04-14T04:58:48.563Z,38.00
2019-04-14T05:01:25.835Z,37.70
2019-04-14T05:04:02.622Z,38.00
2019-04-14T05:06:59.365Z,37.90
2019-04-14T05:09:55.497Z,37.90
2019-04-14T05:12:37.009Z,38.30
2019-04-14T05:15:42.387Z,38.40
2019-04-14T05:18:26.814Z,37.90
2019-04-14T05:21:03.876Z,38.00
2019-04-14T05:23:40.927Z,38.50
2019-04-14T05:26:17.912Z,38.60
2019-04-14T05:28:54.784Z,38.60
2019-04-14T05:31:30.882Z,38.60
2019-04-14T05:34:08.631Z,38.60
2019-04-14T05:36:45.743Z,38.60
2019-04-14T05:39:22.195Z,38.90
2019-04-14T05:42:07.198Z,38.70
2019-04-14T05:44:36.113Z,38.70
2019-04-14T05:47:13.190Z,38.50
2019-04-14T05:49:52.747Z,38.70
2019-04-14T05:52:27.358Z,38.70
2019-04-14T05:55:04.407Z,38.70
2019-04-14T05:57:41.652Z,39.20
2019-04-14T06:00:21.191Z,39.00
2019-04-14T06:02:57.302Z,38.90
2019-04-14T06:05:34.037Z,38.80
2019-04-14T06:08:10.538Z,39.10
2019-04-14T06:10:46.903Z,38.90
2019-04-14T06:13:23.658Z,39.20
2019-04-14T06:16:00.619Z,39.30
2019-04-14T06:18:37.197Z,39.20
2019-04-14T06:21:13.701Z,38.70
2019-04-14T06:23:49.684Z,39.10
2019-04-14T06:26:26.553Z,39.40
2019-04-14T06:29:03.136Z,39.20
2019-04-14T06:31:48.036Z,38.70
2019-04-14T06:34:29.777Z,38.30
2019-04-14T06:37:15.169Z,38.80
2019-04-14T06:39:53.075Z,39.40
2019-04-14T06:42:28.727Z,39.60
2019-04-14T06:45:05.374Z,39.30
2019-04-14T06:47:41.883Z,39.40
2019-04-14T06:50:18.526Z,39.50
2019-04-14T06:52:54.825Z,39.50
2019-04-14T06:55:31.209Z,38.90
2019-04-14T06:58:07.718Z,38.50
2019-04-14T07:00:44.384Z,38.10
2019-04-14T07:03:20.465Z,38.80
2019-04-14T07:05:56.850Z,39.20
2019-04-14T07:08:33.303Z,39.40
2019-04-14T07:11:10.698Z,39.50
2019-04-14T07:13:48.214Z,39.10
2019-04-14T07:16:25.079Z,39.10
2019-04-14T07:19:01.409Z,39.00
2019-04-14T07:21:37.885Z,38.50
2019-04-14T07:24:14.397Z,38.40
2019-04-14T07:26:51.126Z,39.00
2019-04-14T07:29:28.938Z,39.20
2019-04-14T07:32:35.031Z,39.10
2019-04-14T07:35:29.921Z,39.20
2019-04-14T07:38:13.667Z,39.60
2019-04-14T07:41:05.909Z,39.40
2019-04-14T07:44:00.710Z,38.90
2019-04-14T07:46:53.209Z,39.00
2019-04-14T07:49:46.716Z,39.50
2019-04-14T07:52:40.692Z,39.40
2019-04-14T07:55:38.154Z,39.20
2019-04-14T07:58:26.386Z,39.00
2019-04-14T08:01:10.080Z,39.10
2019-04-14T08:04:10.089Z,39.30
2019-04-14T08:06:52.482Z,39.30
2019-04-14T08:09:28.925Z,39.30
2019-04-14T08:12:05.388Z,39.40
2019-04-14T08:14:41.648Z,39.30
2019-04-14T08:17:18.208Z,39.30
2019-04-14T08:19:55.793Z,39.30
2019-04-14T08:22:32.095Z,39.20
2019-04-14T08:25:09.832Z,39.30
2019-04-14T08:27:46.433Z,39.40
2019-04-14T08:30:22.961Z,39.20
2019-04-14T08:32:59.389Z,39.20
2019-04-14T08:35:35.390Z,39.10
2019-04-14T08:38:12.016Z,39.20
2019-04-14T08:40:49.458Z,38.70
2019-04-14T08:43:39.355Z,39.00
2019-04-14T08:46:26.851Z,39.10
2019-04-14T08:49:10.266Z,39.20
2019-04-14T08:52:12.917Z,39.20
2019-04-14T08:55:07.675Z,38.70
2019-04-14T08:57:57.070Z,38.60
2019-04-14T09:00:46.144Z,38.70
2019-04-14T09:03:39.014Z,38.50
2019-04-14T09:06:23.886Z,38.70
2019-04-14T09:09:21.728Z,39.20
2019-04-14T09:12:15.641Z,39.10
2019-04-14T09:14:56.716Z,39.20
2019-04-14T09:17:28.197Z,39.20
2019-04-14T09:20:04.869Z,39.10
2019-04-14T09:22:40.961Z,38.90
2019-04-14T09:25:17.527Z,39.10
2019-04-14T09:27:54.171Z,39.00
2019-04-14T09:30:30.697Z,39.00
2019-04-14T09:33:06.885Z,39.10
2019-04-14T09:35:43.598Z,39.10
2019-04-14T09:38:23.348Z,38.90
2019-04-14T09:40:59.921Z,38.50
2019-04-14T09:43:36.587Z,38.00
2019-04-14T09:46:13.059Z,38.10
2019-04-14T09:48:49.593Z,38.60
2019-04-14T09:51:25.989Z,38.80
2019-04-14T09:54:02.313Z,38.70
2019-04-14T09:56:38.688Z,38.60
2019-04-14T09:59:14.623Z,38.30
2019-04-14T10:01:51.676Z,38.10
2019-04-14T10:04:28.446Z,38.20
2019-04-14T10:07:04.468Z,38.10
2019-04-14T10:09:40.876Z,37.70
2019-04-14T10:12:17.671Z,37.30
2019-04-14T10:14:54.304Z,37.10
2019-04-14T10:17:30.732Z,37.00
2019-04-14T10:20:06.808Z,36.60
2019-04-14T10:22:42.917Z,36.30
2019-04-14T10:25:19.576Z,36.10
2019-04-14T10:27:55.740Z,36.20
2019-04-14T10:30:34.271Z,36.30
2019-04-14T10:33:10.639Z,36.30
2019-04-14T10:35:46.720Z,36.20
2019-04-14T10:38:23.238Z,36.20
2019-04-14T10:40:59.887Z,35.90
2019-04-14T10:43:36.159Z,36.00
2019-04-14T10:46:12.728Z,35.90
2019-04-14T10:48:49.231Z,35.80
2019-04-14T10:51:30.193Z,35.70
2019-04-14T10:54:03.878Z,35.70
2019-04-14T10:56:40.115Z,35.60
2019-04-14T10:59:17.619Z,35.30
2019-04-14T11:01:54.321Z,35.30
2019-04-14T11:04:31.111Z,35.30
2019-04-14T11:07:11.121Z,35.10
2019-04-14T11:09:47.981Z,35.20
2019-04-14T11:12:24.359Z,35.10
2019-04-14T11:15:00.973Z,35.20
2019-04-14T11:17:37.592Z,35.10
2019-04-14T11:20:14.346Z,34.90
2019-04-14T11:23:02.498Z,34.90
2019-04-14T11:25:29.364Z,34.90
2019-04-14T11:28:06.176Z,34.90
2019-04-14T11:30:42.289Z,34.70
2019-04-14T11:33:26.319Z,34.70
2019-04-14T11:36:30.347Z,34.60
2019-04-14T11:39:16.078Z,34.60
2019-04-14T11:41:52.035Z,34.60
2019-04-14T11:44:28.471Z,34.50
2019-04-14T11:47:05.468Z,34.60
2019-04-14T11:49:41.793Z,34.20
2019-04-14T11:52:18.202Z,34.10
2019-04-14T11:54:54.529Z,34.10
2019-04-14T11:57:48.448Z,34.00
2019-04-14T12:00:44.453Z,33.80
2019-04-14T12:03:37.297Z,33.80
2019-04-14T12:06:34.863Z,33.60
2019-04-14T12:09:36.727Z,33.60
2019-04-14T12:12:13.166Z,33.60
2019-04-14T12:14:49.622Z,33.40
2019-04-14T12:17:25.915Z,33.40
2019-04-14T12:20:02.343Z,33.30
2019-04-14T12:22:38.580Z,33.30
2019-04-14T12:25:15.103Z,33.20
2019-04-14T12:27:51.363Z,33.10
2019-04-14T12:30:29.021Z,33.20
2019-04-14T12:33:05.950Z,33.10
2019-04-14T12:35:42.533Z,33.00
2019-04-14T12:38:19.318Z,33.10
2019-04-14T12:40:57.600Z,32.90
2019-04-14T12:43:53.673Z,32.80
2019-04-14T12:47:03.732Z,32.80
2019-04-14T12:49:43.067Z,32.80
2019-04-14T12:52:21.849Z,32.80
2019-04-14T12:54:58.101Z,32.80
2019-04-14T12:57:41.193Z,32.60
2019-04-14T13:00:39.659Z,32.70
2019-04-14T13:03:15.824Z,32.40
2019-04-14T13:05:52.257Z,32.40
2019-04-14T13:08:29.064Z,32.80
2019-04-14T13:11:06.608Z,32.70
2019-04-14T13:13:43.255Z,32.70
2019-04-14T13:16:19.847Z,32.50
2019-04-14T13:18:56.026Z,32.20
2019-04-14T13:21:32.828Z,32.10
2019-04-14T13:24:09.516Z,32.30
2019-04-14T13:26:45.831Z,32.30
2019-04-14T13:29:22.629Z,32.20
2019-04-14T13:31:59.451Z,32.30
2019-04-14T13:34:35.115Z,32.30
2019-04-14T13:37:11.538Z,32.30
2019-04-14T13:39:48.029Z,32.40
2019-04-14T13:42:24.816Z,32.40
2019-04-14T13:45:01.777Z,32.20
2019-04-14T13:47:38.436Z,32.30
2019-04-14T13:50:15.071Z,32.20
2019-04-14T13:52:51.470Z,32.20
2019-04-14T13:55:27.922Z,32.30
2019-04-14T13:58:05.757Z,32.00
2019-04-14T14:00:42.389Z,31.60
2019-04-14T14:03:18.661Z,31.40
2019-04-14T14:05:55.003Z,31.00
2019-04-14T14:08:31.881Z,31.00
2019-04-14T14:11:25.132Z,31.00
2019-04-14T14:14:09.347Z,31.10
2019-04-14T14:17:06.493Z,31.20
2019-04-14T14:19:53.173Z,31.10
2019-04-14T14:22:36.116Z,30.90
2019-04-14T14:25:17.171Z,30.50
2019-04-14T14:27:53.670Z,30.30
2019-04-14T14:30:30.090Z,30.20
2019-04-14T14:33:06.084Z,29.90
2019-04-14T14:35:42.377Z,29.80
2019-04-14T14:38:18.544Z,29.80
2019-04-14T14:40:55.231Z,29.80
2019-04-14T14:43:31.597Z,29.90
2019-04-14T14:46:21.097Z,30.00
2019-04-14T14:49:11.656Z,30.00
2019-04-14T14:51:57.272Z,29.80
2019-04-14T14:54:34.626Z,29.70
2019-04-14T14:57:11.199Z,28.70
2019-04-14T14:59:48.054Z,28.90
2019-04-14T15:02:24.581Z,29.20
2019-04-14T15:05:01.673Z,29.50
2019-04-14T15:07:38.192Z,29.50
2019-04-14T15:10:14.855Z,28.90
2019-04-14T15:12:51.395Z,29.20
2019-04-14T15:15:28.213Z,29.30
2019-04-14T15:18:05.257Z,29.10
2019-04-14T15:20:41.838Z,29.40
2019-04-14T15:23:24.777Z,29.60
2019-04-14T15:25:55.315Z,29.40
2019-04-14T15:28:31.514Z,29.50
2019-04-14T15:31:07.604Z,29.30
2019-04-14T15:33:43.842Z,29.10
2019-04-14T15:36:20.061Z,29.10
2019-04-14T15:38:56.387Z,29.20
2019-04-14T15:41:33.357Z,29.30
2019-04-14T15:44:09.828Z,29.30
2019-04-14T15:46:46.527Z,29.10
2019-04-14T15:49:22.915Z,29.20
2019-04-14T15:51:59.135Z,29.20
2019-04-14T15:54:35.191Z,29.20
2019-04-14T15:57:27.846Z,29.10
2019-04-14T16:00:21.460Z,29.00
2019-04-14T16:03:15.711Z,29.00
2019-04-14T16:06:09.571Z,29.00
2019-04-14T16:09:16.661Z,29.10
2019-04-14T16:12:30.213Z,29.10
2019-04-14T16:15:17.605Z,29.10
2019-04-14T16:18:11.296Z,29.10
2019-04-14T16:20:47.806Z,29.20
2019-04-14T16:23:24.523Z,29.20
2019-04-14T16:26:37.263Z,29.20
2019-04-14T16:29:37.939Z,29.10
2019-04-14T16:32:31.163Z,29.10
2019-04-14T16:35:15.559Z,29.00
2019-04-14T16:37:51.923Z,29.10
2019-04-14T16:40:28.355Z,29.10
2019-04-14T16:43:04.970Z,29.10
2019-04-14T16:45:41.721Z,29.10
2019-04-14T16:48:18.419Z,29.00
2019-04-14T16:50:55.134Z,29.10
2019-04-14T16:53:34.957Z,29.10
2019-04-14T16:56:35.849Z,29.10
2019-04-14T16:59:16.013Z,29.00
2019-04-14T17:01:53.020Z,29.00
2019-04-14T17:04:29.532Z,29.00
2019-04-14T17:07:06.156Z,28.80
2019-04-14T17:09:42.907Z,28.80
2019-04-14T17:12:21.034Z,28.80
2019-04-14T17:15:11.441Z,28.80
2019-04-14T17:18:04.683Z,28.80
2019-04-14T17:21:06.317Z,28.80
2019-04-14T17:23:48.355Z,28.80
2019-04-14T17:26:37.009Z,28.80
2019-04-14T17:29:24.724Z,28.80
2019-04-14T17:32:19.211Z,28.80
2019-04-14T17:35:07.265Z,28.80
2019-04-14T17:38:02.470Z,28.80
2019-04-14T17:41:12.517Z,28.70
2019-04-14T17:44:16.324Z,28.80
2019-04-14T17:47:14.358Z,28.80
2019-04-14T17:49:59.934Z,28.60
2019-04-14T17:52:45.402Z,28.70
2019-04-14T17:55:49.872Z,28.60
2019-04-14T17:58:32.920Z,28.60
2019-04-14T18:01:33.757Z,28.60
2019-04-14T18:04:20.020Z,28.60
2019-04-14T18:07:05.322Z,28.60
2019-04-14T18:09:57.371Z,28.60
2019-04-14T18:12:36.497Z,28.50
2019-04-14T18:15:18.507Z,28.40
2019-04-14T18:18:10.166Z,28.40
2019-04-14T18:20:53.092Z,28.40
2019-04-14T18:23:30.226Z,28.30
2019-04-14T18:26:06.754Z,28.30
2019-04-14T18:28:52.796Z,28.30
2019-04-14T18:31:44.384Z,28.30
2019-04-14T18:34:44.660Z,28.30
2019-04-14T18:37:30.232Z,28.30
2019-04-14T18:40:13.029Z,28.30
2019-04-14T18:43:22.374Z,28.30
2019-04-14T18:46:23.031Z,28.20
2019-04-14T18:49:32.673Z,28.20
2019-04-14T18:52:23.428Z,28.10
2019-04-14T18:55:10.016Z,28.20
2019-04-14T18:58:04.474Z,28.20
2019-04-14T19:00:49.712Z,28.20
2019-04-14T19:03:25.799Z,28.10
2019-04-14T19:06:01.975Z,28.00
2019-04-14T19:08:38.423Z,28.10
2019-04-14T19:11:51.071Z,28.20
2019-04-14T19:14:32.780Z,28.00
2019-04-14T19:17:28.068Z,28.10
2019-04-14T19:20:04.644Z,28.00
2019-04-14T19:22:40.905Z,28.20
2019-04-14T19:25:17.339Z,28.20
2019-04-14T19:27:53.746Z,28.10
2019-04-14T19:30:29.991Z,28.10
2019-04-14T19:33:06.506Z,28.10
2019-04-14T19:35:42.640Z,28.10
2019-04-14T19:38:18.740Z,28.20
2019-04-14T19:40:55.359Z,28.00
2019-04-14T19:43:31.555Z,27.90
2019-04-14T19:46:07.894Z,27.90
2019-04-14T19:48:44.160Z,27.90
2019-04-14T19:51:20.685Z,27.80
2019-04-14T19:53:57.428Z,27.80
2019-04-14T19:56:33.908Z,27.90
2019-04-14T19:59:10.339Z,27.80
2019-04-14T20:01:46.736Z,27.90
2019-04-14T20:04:23.449Z,28.00
2019-04-14T20:07:00.287Z,27.90
2019-04-14T20:09:36.522Z,27.80
2019-04-14T20:12:13.372Z,27.70
2019-04-14T20:14:49.735Z,27.80
2019-04-14T20:17:40.578Z,27.80
2019-04-14T20:20:33.059Z,27.80
2019-04-14T20:23:45.851Z,27.70
2019-04-14T20:26:43.802Z,27.80
2019-04-14T20:29:23.954Z,27.80
2019-04-14T20:32:05.136Z,27.80
2019-04-14T20:34:41.953Z,27.80
2019-04-14T20:37:18.406Z,27.80
2019-04-14T20:39:54.890Z,27.60
2019-04-14T20:42:31.343Z,27.50
2019-04-14T20:45:09.212Z,27.30
2019-04-14T20:47:45.102Z,27.00
2019-04-14T20:50:21.782Z,27.20
2019-04-14T20:53:07.356Z,27.30
2019-04-14T20:55:47.258Z,27.30
2019-04-14T20:58:21.612Z,27.30
2019-04-14T21:00:58.044Z,27.10
2019-04-14T21:03:45.503Z,27.20
2019-04-14T21:06:36.781Z,27.30
2019-04-14T21:09:29.667Z,27.30
2019-04-14T21:12:30.436Z,27.20
2019-04-14T21:15:20.907Z,27.10
2019-04-14T21:18:06.157Z,27.20
2019-04-14T21:21:00.627Z,27.10
2019-04-14T21:23:55.412Z,27.10
2019-04-14T21:26:52.762Z,27.10
2019-04-14T21:29:53.198Z,27.10
2019-04-14T21:32:33.961Z,26.70
2019-04-14T21:35:27.608Z,26.50
2019-04-14T21:38:17.777Z,26.70
2019-04-14T21:40:58.002Z,27.00
2019-04-14T21:43:34.364Z,26.80
2019-04-14T21:46:10.536Z,26.80
2019-04-14T21:48:47.174Z,26.80
2019-04-14T21:51:25.059Z,26.50
2019-04-14T21:54:01.270Z,26.60
2019-04-14T21:56:38.025Z,26.80
2019-04-14T21:59:20.115Z,26.80
2019-04-14T22:02:13.405Z,26.70
2019-04-14T22:05:14.313Z,26.70
2019-04-14T22:08:10.028Z,26.70
2019-04-14T22:10:50.235Z,26.70
2019-04-14T22:13:26.652Z,26.70
2019-04-14T22:16:02.959Z,26.60
2019-04-14T22:18:39.687Z,26.40
2019-04-14T22:21:15.906Z,26.60
2019-04-14T22:24:01.309Z,26.70
2019-04-14T22:26:29.427Z,26.70
2019-04-14T22:29:05.755Z,26.60
2019-04-14T22:31:43.233Z,26.60
2019-04-14T22:34:19.793Z,26.50
2019-04-14T22:36:56.090Z,26.50
2019-04-14T22:39:33.590Z,26.50
2019-04-14T22:42:10.270Z,26.30
2019-04-14T22:44:46.399Z,26.20
2019-04-14T22:47:24.620Z,26.20
2019-04-14T22:50:00.897Z,26.30
2019-04-14T22:52:37.238Z,26.20
2019-04-14T22:55:14.131Z,26.20
2019-04-14T22:57:50.518Z,26.00
2019-04-14T23:00:51.922Z,25.90
2019-04-14T23:03:46.408Z,25.90
2019-04-14T23:06:52.978Z,26.00
2019-04-14T23:09:40.512Z,26.50
2019-04-14T23:12:30.419Z,26.60
2019-04-14T23:15:34.209Z,26.60
2019-04-14T23:18:16.793Z,26.60
2019-04-14T23:21:15.607Z,26.60
2019-04-14T23:24:10.816Z,26.70
2019-04-14T23:26:52.698Z,26.70
2019-04-14T23:29:25.253Z,26.70
2019-04-14T23:32:01.697Z,26.80
2019-04-14T23:34:38.304Z,26.90
2019-04-14T23:37:15.163Z,26.90
2019-04-14T23:39:51.496Z,27.00
2019-04-14T23:42:27.903Z,27.10
2019-04-14T23:45:04.355Z,27.20
2019-04-14T23:47:41.643Z,27.30
2019-04-14T23:50:18.185Z,27.30
2019-04-14T23:52:55.792Z,27.40
2019-04-14T23:55:32.478Z,27.40
2019-04-14T23:58:09.002Z,27.50
